View Sortable Currents For Network
ASOSAWOSCoCoRaHSCOOPDCPISUSM
SchoolNetOtherSCANMy FavoritesBy StateRWIS
RWIS SurfaceRWIS TrafficRWIS SoilBy NWS WFOUSCRN
Select Network:
Include METARS:
Sort Order: Format:

Times shown are for timezone: America/Chicago. The local day summary is based on that timezone.
Table sorted by: (Observation Time)     Click on a column to sort it. Click on site ID for more information. You can download data from this network here and you can view daily summaries on this network.
ADD: ID Station Ob Time Present Wx Temps °F   Wind [knots] Precip Clouds
Air Hi Lo Dewp Feels RH % Alti Vsby Speed Drct Gust @ Time 1 Hour Today Level 1 Level 2 Level 3 Level 4
SPISPRINGFIELD02:52 PM586554 50 58 74.9121 30.06 10 7N19.1175 @ 05:58 AM0 0 OVC 2200
ORDCHICAGO O HARE02:51 PM606549 44 60 55.4388 30.03 10 5NE25 @ 04:51 AM0 T SCT 3300 SCT 25000
ALNALTON/ST LOUIS R02:45 PM647055 52 64 63.5999 30.05 10 5NW18 @ 01:55 AM0 SCT 2500 BKN 7500
MDHCARBONDALE/MURPH02:44 PMVCTS737460 60 73 63.9594 30 10 5NNE22 @ 12:25 AM0 FEW 4500 SCT 9000
SFYSavanna02:36 PM646448 43 64 45.3228 30.05 10 7N16 @ 12:16 AM0 CLR
PNTPONTIAC02:35 PM566453 49 56 76.7265 30.06 10 0N23 @ 02:35 AM0 OVC 2200
1H2EFFINGHAM02:35 PM656859 53 65 65.2857 30.05 10 5NNW16 @ 12:15 AM0 BKN 2500
FWCFAIRFIELD02:35 PM727460 58 72 61.4084 29.99 10 5NW6 @ 01:55 PM0 SCT 3800 OVC 8000
DNVDANVILLE02:35 PMM00 M M M 30.02 10 5N21 @ 01:15 AM0 BKN 900 OVC 1300
06CChicago - Schaumburg 02:35 PM596448 43 59 55.8498 30.03 10 3WNW17 @ 01:35 AM0 SCT 3600
VYSPERU02:35 PM576150 45 57 62.2424 30.05 10 0N24 @ 12:55 AM0 OVC 3100
SARSPARTA02:35 PM717162 61 71 71.4093 30.02 10 3WNW8 @ 02:35 AM0 CLR
PRGPARIS02:35 PM616858 54 61 76.6099 30.05 10 7NW20 @ 12:35 AM0 OVC 1800
MQBMACOMB MUNI02:35 PM545650 49 54 82.8192 30.09 10 5N18 @ 03:35 AM0 OVC 1100
C09MORRIS-WASHBURN02:35 PM596451 45 59 61.4444 30.04 10 5NNE26 @ 02:15 AM0
FEPFREEPORT02:35 PM626246 40 62 42.9596 30.06 10 9N18 @ 01:35 AM0 T CLR
RPJRochelle02:35 PM606047 45 60 56.5061 30.05 10 6N22 @ 01:35 AM0 CLR
OLYOLNEY-NOBLE02:35 PM717161 59 71 64.8577 30.02 10 9WNW14 @ 01:15 PM0 SCT 3000
PPQPITTSFIELD02:35 PM596454 51 59 73.9311 30.07 10 4NNW15 @ 04:15 AM0 OVC 2200
CIRCairo02:35 PM787859 61 78 56.8226 30 10 7SSW7 @ 01:55 PM0 CLR
AAALincoln02:35 PM586755 52 58 81.8548 30.05 10 5NW7 @ 03:15 AM0 OVC 1500
IJXJACKSONVILLE02:35 PM596353 49 59 71.1732 30.05 10 6N16 @ 04:55 AM0 OVC 2300
RSVRobinson02:35 PM686860 56 68 64.5095 30.02 10 8WNW16 @ 01:15 PM0 BKN 3000
IGQCHICAGO/LANSING02:35 PM536645 44 53 71.1388 30.06 10 9ENE24 @ 12:15 AM0 SCT 2400 BKN 3100
TIPRANTOUL 02:35 PM566254 51 56 81.4524 30.05 10 6NNW14 @ 11:35 AM0 OVC 1500
TAZTAYLORVILLE02:35 PM596454 50 59 72.5726 30.05 10 3N16 @ 03:55 AM0 OVC 2300
C75LACON02:35 PM546351 46 54 74.5512 30.06 10 0N21 @ 01:15 AM0 OVC 2200
3LFLitchfield02:35 PM616753 52 61 73.0219 30.06 10 7N11 @ 02:35 AM0 SCT 2300
DKBDE KALB02:35 PM606147 45 60 56.1053 30.04 10 8NNE24 @ 12:55 AM0 CLR
M30Metropolis IL02:35 PM797957 61 79 54.7961 30.01 10 6SW8 @ 01:15 PM0 BKN 4000 BKN 4700
FOAFLORA02:35 PM697162 58 69 67.2905 30.02 10 11NW14 @ 08:55 AM0 CLR
IKKKANKAKEE02:35 PM566551 47 56 72.2059 30.06 10 3NE22 @ 03:55 AM0 BKN 2200 OVC 2600
HSBHARRISBURG02:35 PM777758 67 77 71.0731 29.99 10 8NW8 @ 12:15 AM0 CLR
ENLCENTRALIA02:35 PM687059 59 68 71.6238 30.02 10 7NW14 @ 01:35 AM0 0.03 BKN 7000
AJGMount Carmel02:35 PM737361 58 73 59.1715 29.99 10 6NW18 @ 12:55 PM0 BKN 3500 BKN 4300
LOTROMEOVILLE/CHI02:35 PM596550 45 59 58.7957 30.04 10 4N24 @ 02:35 AM0 BKN 3500
I63Mount Sterling02:35 PM565851 48 56 76.6821 30.06 10 7NNW20 @ 01:35 AM0 OVC 1900
JOTJOLIET02:35 PM616652 47 61 59.2903 30.04 10 6N21 @ 02:15 AM0 BKN 3300
GBGGALESBURG02:35 PM545650 47 54 77.9781 30.08 10 5NNE23 @ 01:15 AM0 OVC 1600
SLOSALEM/LECKRONE02:35 PM697161 56 69 64.594 30.03 10 5NW17 @ 01:55 AM0 0.03 SCT 2800 BKN 8000
CULCarmi02:17 PM757763 63 75 64.9068 30 10 8WNW15 @ 12:57 PM0 SCT 3400 BKN 4200 BKN 4800
ARRCHICAGO/AURORA02:01 PM586149 46 58 64.4708 30.03 10 12G16NW28 @ 02:35 AM0 SCT 2800
BMIBLOOMINGTON/NORM01:56 PM546352 50 54 86.2867 30.07 9 7N20 @ 03:16 AM0 T OVC 900
BLVSCOTT AFB/BELLEV01:56 PM676960 56 67 66.0854 30.03 10 6N10 @ 06:56 AM0 FEW 7500
MVNMOUNT VERNON01:56 PM727257 59 72 63.6103 30.01 10 6N13.0346 @ 02:11 AM0 0 CLR
UGNWAUKEGAN01:55 PM556647 42 55 61.6929 30.03 10 7E29 @ 11:56 PM0 SCT 3200
UINQUINCY01:54 PM565652 47 56 71.6942 30.07 10 3NNW21 @ 02:54 AM0 OVC 1800
RFDROCKFORD01:54 PM636348 42 63 46.3385 30.05 10 9N22 @ 02:34 AM0 T FEW 2200 BKN 25000
DECDECATUR01:54 PM596354 49 59 69.1209 30.05 10 8NW22 @ 05:25 AM0 T OVC 2000
PIAPEORIA01:54 PM566052 49 56 77.2846 30.06 10 5N21 @ 01:54 AM0 OVC 1500
MTOMATTOON/CHARLEST01:53 PM616755 53 61 75.2013 30.03 10 10NNW21 @ 12:53 AM0 BKN 1800 OVC 2500
CPSCAHOKIA/ST LOUIS01:53 PM657160 53 65 65.5619 30.04 10 6NNE11 @ 01:10 PM0 BKN 7500
CMICHAMPAIGN/URBANA01:53 PM576255 52 57 83.3289 30.05 10 10NW19 @ 05:30 AM0 OVC 1400
MDWCHICAGO01:53 PM586651 45 58 62.0705 30.04 10 3N27 @ 12:22 AM0 T BKN 3200 BKN 25000
LWVLAWRENCEVILLE01:53 PM727261 57 72 59.2001 30.01 10 9NW18 @ 11:55 AM0 FEW 2900
DPACHICAGO/DUPAGE01:52 PM606450 44 60 55.4388 30.03 10 0N28 @ 03:21 AM0 SCT 3100
MLIMoline01:52 PM616151 47 61 59.7122 30.06 10 4N27 @ 01:52 AM0 FEW 2900
PWKPALWAUKEE01:52 PM586850 42 0 55.5499 30.05 10 0N25 @ 04:12 AM0 CLR
MWAMARION REGIONAL01:45 PM737559 61 73 64.6934 30.02 20 10NNW15 @ 12:15 AM0 BKN 4800